createdAt,value
2022-10-08T00:00:09.425Z,10.80
2022-10-08T00:01:10.339Z,10.40
2022-10-08T00:02:09.542Z,11.00
2022-10-08T00:03:09.367Z,10.80
2022-10-08T00:04:09.389Z,10.90
2022-10-08T00:05:09.355Z,9.80
2022-10-08T00:06:09.334Z,10.50
2022-10-08T00:07:09.333Z,10.80
2022-10-08T00:08:09.306Z,11.80
2022-10-08T00:09:09.293Z,12.30
2022-10-08T00:10:09.282Z,11.40
2022-10-08T00:11:09.266Z,12.00
2022-10-08T00:12:09.258Z,12.50
2022-10-08T00:13:09.237Z,11.50
2022-10-08T00:14:09.257Z,11.40
2022-10-08T00:15:09.209Z,11.30
2022-10-08T00:16:09.250Z,11.90
2022-10-08T00:17:09.190Z,11.00
2022-10-08T00:18:09.169Z,10.30
2022-10-08T00:19:09.169Z,11.30
2022-10-08T00:20:09.151Z,11.30
2022-10-08T00:21:09.139Z,11.10
2022-10-08T00:22:09.132Z,10.80
2022-10-08T00:23:09.107Z,11.50
2022-10-08T00:24:09.097Z,11.60
2022-10-08T00:25:09.082Z,11.30
2022-10-08T00:26:09.071Z,9.60
2022-10-08T00:27:09.083Z,11.50
2022-10-08T00:28:09.087Z,11.20
2022-10-08T00:29:09.032Z,11.40
2022-10-08T00:30:09.023Z,11.20
2022-10-08T00:31:09.993Z,11.80
2022-10-08T00:32:09.003Z,10.70
2022-10-08T00:33:08.974Z,11.40
2022-10-08T00:34:08.963Z,11.20
2022-10-08T00:35:08.945Z,10.80
2022-10-08T00:36:08.953Z,11.00
2022-10-08T00:37:08.936Z,10.70
2022-10-08T00:38:08.911Z,11.40
2022-10-08T00:39:08.895Z,10.70
2022-10-08T00:40:08.897Z,11.40
2022-10-08T00:41:09.835Z,10.40
2022-10-08T00:42:08.910Z,10.50
2022-10-08T00:43:08.847Z,10.90
2022-10-08T00:44:08.831Z,11.10
2022-10-08T00:45:08.828Z,11.40
2022-10-08T00:46:08.903Z,10.90
2022-10-08T00:47:08.811Z,11.80
2022-10-08T00:48:08.782Z,11.50
2022-10-08T00:49:08.768Z,11.40
2022-10-08T00:50:08.763Z,10.70
2022-10-08T00:51:08.748Z,11.00
2022-10-08T00:52:08.736Z,10.90
2022-10-08T00:53:09.659Z,11.00
2022-10-08T00:54:09.658Z,11.10
2022-10-08T00:55:08.689Z,11.30
2022-10-08T00:56:08.689Z,11.10
2022-10-08T00:57:08.717Z,10.50
2022-10-08T00:58:08.661Z,10.30
2022-10-08T00:59:08.642Z,10.60
2022-10-08T01:00:08.630Z,11.60
2022-10-08T01:01:08.674Z,10.30
2022-10-08T01:02:08.731Z,10.30
2022-10-08T01:03:08.597Z,10.70
2022-10-08T01:04:08.572Z,11.90
2022-10-08T01:05:08.573Z,11.50
2022-10-08T01:06:08.542Z,10.50
2022-10-08T01:07:08.591Z,10.60
2022-10-08T01:08:08.533Z,10.90
2022-10-08T01:09:08.506Z,11.30
2022-10-08T01:10:08.514Z,11.30
2022-10-08T01:11:08.483Z,11.20
2022-10-08T01:12:08.483Z,11.10
2022-10-08T01:13:08.454Z,11.30
2022-10-08T01:14:08.455Z,11.20
2022-10-08T01:15:08.437Z,11.80
2022-10-08T01:16:08.440Z,11.40
2022-10-08T01:17:08.425Z,11.40
2022-10-08T01:18:08.446Z,11.30
2022-10-08T01:19:08.376Z,11.00
2022-10-08T01:20:08.816Z,10.50
2022-10-08T01:21:08.347Z,11.50
2022-10-08T01:22:08.346Z,11.00
2022-10-08T01:23:08.477Z,11.80
2022-10-08T01:24:08.317Z,11.90
2022-10-08T01:25:08.308Z,11.30
2022-10-08T01:26:08.299Z,12.70
2022-10-08T01:27:08.510Z,11.50
2022-10-08T01:28:08.296Z,11.70
2022-10-08T01:29:08.248Z,11.60
2022-10-08T01:30:08.262Z,11.80
2022-10-08T01:31:08.273Z,12.40
2022-10-08T01:32:08.218Z,11.30
2022-10-08T01:33:08.192Z,12.10
2022-10-08T01:34:08.187Z,11.50
2022-10-08T01:35:08.173Z,11.90
2022-10-08T01:36:08.179Z,12.10
2022-10-08T01:37:08.221Z,11.70
2022-10-08T01:38:08.132Z,11.90
2022-10-08T01:39:08.113Z,12.40
2022-10-08T01:40:08.117Z,12.20
2022-10-08T01:41:09.060Z,12.30
2022-10-08T01:42:08.098Z,11.60
2022-10-08T01:43:08.065Z,11.70
2022-10-08T01:44:08.049Z,11.20
2022-10-08T01:45:08.062Z,12.10
2022-10-08T01:46:09.018Z,11.90
2022-10-08T01:47:08.087Z,12.10
2022-10-08T01:48:08.011Z,11.80
2022-10-08T01:49:07.985Z,12.30
2022-10-08T01:50:07.987Z,11.20
2022-10-08T01:51:07.965Z,12.30
2022-10-08T01:52:08.001Z,11.70
2022-10-08T01:53:07.943Z,11.40
2022-10-08T01:54:07.918Z,11.90
2022-10-08T01:55:07.919Z,10.90
2022-10-08T01:56:07.900Z,11.70
2022-10-08T01:57:07.924Z,10.90
2022-10-08T01:58:07.868Z,10.40
2022-10-08T01:59:07.868Z,11.70
2022-10-08T02:00:08.808Z,11.10
2022-10-08T02:01:07.853Z,10.60
2022-10-08T02:02:08.795Z,11.30
2022-10-08T02:03:07.810Z,11.00
2022-10-08T02:04:07.789Z,10.70
2022-10-08T02:05:07.798Z,11.00
2022-10-08T02:06:07.762Z,10.50
2022-10-08T02:07:07.793Z,10.70
2022-10-08T02:08:07.744Z,11.00
2022-10-08T02:09:07.733Z,10.50
2022-10-08T02:10:07.717Z,10.70
2022-10-08T02:11:07.702Z,11.10
2022-10-08T02:12:07.707Z,10.30
2022-10-08T02:13:07.672Z,10.10
2022-10-08T02:14:07.662Z,9.90
2022-10-08T02:15:07.667Z,10.80
2022-10-08T02:16:07.689Z,10.30
2022-10-08T02:17:07.709Z,11.60
2022-10-08T02:18:07.616Z,10.50
2022-10-08T02:19:07.594Z,10.70
2022-10-08T02:20:07.596Z,10.30
2022-10-08T02:21:07.570Z,10.20
2022-10-08T02:22:07.556Z,10.00
2022-10-08T02:23:07.545Z,10.60
2022-10-08T02:24:07.543Z,10.60
2022-10-08T02:25:07.525Z,10.60
2022-10-08T02:26:07.506Z,10.10
2022-10-08T02:27:07.505Z,10.50
2022-10-08T02:28:08.506Z,9.90
2022-10-08T02:29:07.466Z,10.70
2022-10-08T02:30:07.456Z,10.10
2022-10-08T02:31:07.437Z,10.20
2022-10-08T02:32:07.522Z,9.70
2022-10-08T02:33:07.427Z,10.20
2022-10-08T02:34:07.399Z,10.10
2022-10-08T02:35:07.417Z,9.70
2022-10-08T02:36:07.378Z,9.60
2022-10-08T02:37:07.364Z,9.80
2022-10-08T02:38:07.356Z,10.90
2022-10-08T02:39:07.350Z,10.40
2022-10-08T02:40:07.329Z,10.00
2022-10-08T02:41:07.310Z,10.10
2022-10-08T02:42:07.300Z,10.20
2022-10-08T02:43:07.288Z,10.20
2022-10-08T02:44:07.281Z,10.10
2022-10-08T02:45:07.270Z,10.90
2022-10-08T02:46:07.311Z,9.60
2022-10-08T02:47:07.231Z,10.00
2022-10-08T02:48:07.225Z,10.20
2022-10-08T02:49:07.222Z,10.40
2022-10-08T02:50:07.197Z,10.20
2022-10-08T02:51:07.180Z,10.40
2022-10-08T02:52:07.163Z,10.30
2022-10-08T02:53:08.112Z,10.00
2022-10-08T02:54:07.143Z,9.40
2022-10-08T02:55:07.132Z,10.50
2022-10-08T02:56:07.114Z,9.90
2022-10-08T02:57:09.492Z,10.30
2022-10-08T02:58:08.042Z,10.20
2022-10-08T02:59:07.084Z,9.90
2022-10-08T03:00:07.067Z,10.90
2022-10-08T03:01:07.089Z,10.10
2022-10-08T03:02:07.073Z,9.60
2022-10-08T03:03:07.973Z,9.90
2022-10-08T03:04:07.024Z,10.90
2022-10-08T03:05:06.997Z,10.70
2022-10-08T03:06:06.987Z,10.50
2022-10-08T03:07:07.006Z,10.50
2022-10-08T03:08:07.905Z,10.70
2022-10-08T03:09:06.962Z,10.80
2022-10-08T03:10:06.929Z,9.80
2022-10-08T03:11:06.927Z,10.70
2022-10-08T03:12:06.908Z,10.20
2022-10-08T03:13:06.888Z,10.90
2022-10-08T03:14:06.878Z,10.80
2022-10-08T03:15:06.866Z,11.00
2022-10-08T03:16:06.851Z,10.30
2022-10-08T03:17:06.840Z,10.20
2022-10-08T03:18:06.829Z,10.20
2022-10-08T03:19:06.817Z,10.70
2022-10-08T03:20:06.792Z,9.80
2022-10-08T03:21:06.792Z,10.30
2022-10-08T03:22:06.771Z,10.50
2022-10-08T03:23:06.768Z,10.90
2022-10-08T03:24:06.764Z,10.50
2022-10-08T03:25:06.743Z,10.30
2022-10-08T03:26:06.724Z,10.40
2022-10-08T03:27:08.182Z,10.90
2022-10-08T03:28:06.721Z,11.00
2022-10-08T03:29:06.694Z,10.60
2022-10-08T03:30:06.665Z,10.50
2022-10-08T03:31:06.807Z,10.70
2022-10-08T03:32:06.641Z,10.40
2022-10-08T03:33:06.625Z,10.90
2022-10-08T03:34:06.623Z,10.60
2022-10-08T03:35:06.605Z,9.80
2022-10-08T03:36:06.594Z,10.40
2022-10-08T03:37:06.586Z,10.00
2022-10-08T03:38:06.555Z,10.40
2022-10-08T03:39:06.628Z,10.90
2022-10-08T03:40:06.538Z,10.30
2022-10-08T03:41:06.526Z,10.30
2022-10-08T03:42:06.507Z,10.40
2022-10-08T03:43:06.501Z,10.10
2022-10-08T03:44:06.488Z,11.20
2022-10-08T03:45:06.489Z,11.20
2022-10-08T03:46:06.541Z,10.20
2022-10-08T03:47:06.457Z,11.00
2022-10-08T03:48:06.427Z,11.00
2022-10-08T03:49:06.428Z,10.50
2022-10-08T03:50:06.400Z,10.60
2022-10-08T03:51:06.395Z,10.10
2022-10-08T03:52:06.383Z,10.20
2022-10-08T03:53:06.367Z,10.60
2022-10-08T03:54:06.357Z,12.60
2022-10-08T03:55:06.347Z,10.40
2022-10-08T03:56:06.330Z,10.70
2022-10-08T03:57:06.430Z,10.90
2022-10-08T03:58:06.306Z,10.90
2022-10-08T03:59:06.302Z,11.50
2022-10-08T04:00:06.271Z,10.60
2022-10-08T04:01:06.315Z,11.00
2022-10-08T04:02:06.277Z,10.50
2022-10-08T04:03:06.328Z,10.60
2022-10-08T04:04:06.226Z,10.00
2022-10-08T04:05:06.213Z,11.10
2022-10-08T04:06:06.195Z,11.00
2022-10-08T04:07:06.185Z,11.40
2022-10-08T04:08:06.174Z,10.50
2022-10-08T04:09:06.154Z,11.40
2022-10-08T04:10:06.136Z,10.40
2022-10-08T04:11:06.134Z,10.90
2022-10-08T04:12:06.114Z,10.40
2022-10-08T04:13:06.115Z,10.90
2022-10-08T04:14:06.085Z,11.70
2022-10-08T04:15:06.083Z,10.60
2022-10-08T04:16:06.092Z,11.00
2022-10-08T04:17:06.056Z,10.60
2022-10-08T04:18:06.995Z,10.90
2022-10-08T04:19:06.028Z,11.50
2022-10-08T04:20:06.015Z,12.00
2022-10-08T04:21:06.012Z,11.10
2022-10-08T04:22:05.988Z,11.20
2022-10-08T04:23:05.979Z,10.50
2022-10-08T04:24:05.971Z,10.10
2022-10-08T04:25:05.944Z,11.50
2022-10-08T04:26:05.939Z,10.70
2022-10-08T04:27:05.920Z,11.40
2022-10-08T04:28:06.000Z,10.70
2022-10-08T04:29:05.889Z,11.70
2022-10-08T04:30:05.876Z,11.20
2022-10-08T04:31:05.966Z,11.80
2022-10-08T04:32:05.851Z,10.50
2022-10-08T04:33:05.850Z,11.10
2022-10-08T04:34:05.830Z,11.70
2022-10-08T04:35:05.820Z,11.30
2022-10-08T04:36:05.801Z,11.60
2022-10-08T04:37:05.789Z,11.30
2022-10-08T04:38:05.803Z,11.00
2022-10-08T04:39:05.762Z,11.10
2022-10-08T04:40:05.754Z,11.80
2022-10-08T04:41:05.741Z,10.90
2022-10-08T04:42:05.741Z,11.60
2022-10-08T04:43:05.720Z,11.20
2022-10-08T04:44:05.694Z,11.70
2022-10-08T04:45:06.087Z,12.00
2022-10-08T04:46:05.718Z,11.60
2022-10-08T04:47:05.654Z,11.50
2022-10-08T04:48:05.645Z,12.00
2022-10-08T04:49:05.635Z,12.50
2022-10-08T04:50:05.617Z,12.20
2022-10-08T04:51:10.063Z,11.90
2022-10-08T04:52:06.593Z,12.40
2022-10-08T04:53:05.586Z,11.70
2022-10-08T04:54:05.566Z,12.20
2022-10-08T04:55:05.558Z,12.60
2022-10-08T04:56:06.496Z,12.50
2022-10-08T04:57:05.529Z,12.00
2022-10-08T04:58:05.523Z,12.40
2022-10-08T04:59:05.497Z,12.20
2022-10-08T05:00:18.479Z,12.70
2022-10-08T05:01:06.486Z,12.30
2022-10-08T05:02:05.543Z,12.60
2022-10-08T05:03:05.499Z,12.60
2022-10-08T05:04:05.440Z,12.30
2022-10-08T05:05:05.419Z,13.40
2022-10-08T05:06:05.414Z,11.80
2022-10-08T05:07:05.409Z,10.90
2022-10-08T05:08:05.381Z,11.80
2022-10-08T05:09:05.370Z,11.90
2022-10-08T05:10:05.366Z,11.70
2022-10-08T05:11:05.345Z,12.30
2022-10-08T05:12:05.330Z,11.10
2022-10-08T05:13:05.323Z,10.90
2022-10-08T05:14:05.301Z,10.80
2022-10-08T05:15:05.292Z,10.60
2022-10-08T05:16:05.332Z,11.00
2022-10-08T05:17:05.293Z,10.20
2022-10-08T05:18:05.254Z,10.20
2022-10-08T05:19:05.240Z,10.30
2022-10-08T05:20:05.223Z,10.10
2022-10-08T05:21:05.211Z,10.70
2022-10-08T05:22:05.213Z,10.00
2022-10-08T05:23:05.186Z,10.20
2022-10-08T05:24:05.175Z,9.70
2022-10-08T05:25:05.165Z,10.30
2022-10-08T05:26:05.144Z,10.40
2022-10-08T05:27:05.153Z,9.90
2022-10-08T05:28:05.137Z,10.60
2022-10-08T05:29:05.113Z,10.50
2022-10-08T05:30:06.046Z,10.40
2022-10-08T05:31:05.144Z,10.60
2022-10-08T05:32:05.079Z,9.90
2022-10-08T05:33:05.059Z,10.70
2022-10-08T05:34:05.037Z,10.60
2022-10-08T05:35:05.028Z,9.60
2022-10-08T05:36:05.018Z,11.20
2022-10-08T05:37:05.018Z,9.90
2022-10-08T05:38:04.988Z,10.10
2022-10-08T05:39:04.979Z,9.30
2022-10-08T05:40:04.959Z,9.20
2022-10-08T05:41:04.955Z,10.60
2022-10-08T05:42:04.940Z,11.10
2022-10-08T05:43:04.930Z,11.00
2022-10-08T05:44:04.913Z,10.80
2022-10-08T05:45:04.907Z,9.60
2022-10-08T05:46:04.920Z,10.70
2022-10-08T05:47:04.889Z,11.20
2022-10-08T05:48:04.862Z,10.50
2022-10-08T05:49:04.849Z,9.70
2022-10-08T05:50:04.833Z,9.40
2022-10-08T05:51:04.821Z,8.60
2022-10-08T05:52:04.812Z,8.60
2022-10-08T05:53:09.117Z,9.40
2022-10-08T05:54:04.774Z,9.10
2022-10-08T05:55:04.772Z,9.20
2022-10-08T05:56:04.753Z,8.50
2022-10-08T05:57:04.753Z,8.30
2022-10-08T05:58:04.731Z,8.80
2022-10-08T05:59:04.716Z,8.10
2022-10-08T06:00:04.705Z,9.20
2022-10-08T06:01:04.685Z,9.00
2022-10-08T06:02:04.685Z,9.30
2022-10-08T06:03:04.706Z,8.90
2022-10-08T06:04:08.835Z,8.50
2022-10-08T06:05:05.634Z,7.90
2022-10-08T06:06:04.629Z,10.80
2022-10-08T06:07:04.626Z,12.10
2022-10-08T06:08:04.607Z,9.80
2022-10-08T06:09:04.588Z,8.70
2022-10-08T06:10:04.577Z,8.60
2022-10-08T06:11:04.557Z,8.20
2022-10-08T06:12:04.557Z,8.50
2022-10-08T06:13:04.528Z,9.00
2022-10-08T06:14:05.468Z,8.10
2022-10-08T06:15:04.498Z,9.20
2022-10-08T06:16:04.563Z,8.20
2022-10-08T06:17:04.493Z,8.20
2022-10-08T06:18:04.468Z,8.10
2022-10-08T06:19:04.457Z,10.60
2022-10-08T06:20:04.462Z,9.10
2022-10-08T06:21:04.422Z,7.60
2022-10-08T06:22:04.428Z,7.90
2022-10-08T06:23:04.411Z,8.30
2022-10-08T06:24:05.360Z,7.10
2022-10-08T06:25:04.373Z,8.30
2022-10-08T06:26:04.367Z,7.80
2022-10-08T06:27:04.504Z,10.10
2022-10-08T06:28:04.361Z,7.70
2022-10-08T06:29:04.327Z,8.10
2022-10-08T06:30:04.312Z,7.10
2022-10-08T06:31:04.362Z,6.10
2022-10-08T06:32:04.294Z,7.20
2022-10-08T06:33:04.275Z,8.80
2022-10-08T06:34:04.435Z,8.90
2022-10-08T06:35:04.247Z,7.30
2022-10-08T06:36:04.236Z,7.20
2022-10-08T06:37:04.226Z,7.60
2022-10-08T06:38:04.206Z,7.40
2022-10-08T06:39:04.186Z,8.00
2022-10-08T06:40:04.186Z,6.10
2022-10-08T06:41:04.166Z,6.30
2022-10-08T06:42:04.163Z,6.50
2022-10-08T06:43:04.147Z,7.50
2022-10-08T06:44:04.137Z,7.10
2022-10-08T06:45:04.117Z,6.90
2022-10-08T06:46:04.907Z,7.80
2022-10-08T06:47:04.162Z,10.00
2022-10-08T06:48:04.076Z,7.50
2022-10-08T06:49:04.070Z,6.90
2022-10-08T06:50:04.049Z,6.20
2022-10-08T06:51:04.043Z,10.20
2022-10-08T06:52:04.037Z,7.20
2022-10-08T06:53:04.009Z,7.60
2022-10-08T06:54:07.785Z,7.20
2022-10-08T06:55:03.982Z,6.50
2022-10-08T06:56:03.972Z,6.70
2022-10-08T06:57:03.964Z,7.20
2022-10-08T06:58:03.951Z,6.30
2022-10-08T06:59:03.939Z,7.40
2022-10-08T07:00:04.882Z,8.10
2022-10-08T07:01:03.953Z,7.70
2022-10-08T07:02:03.966Z,6.40
2022-10-08T07:03:04.841Z,7.10
2022-10-08T07:04:03.879Z,7.00
2022-10-08T07:05:03.854Z,6.80
2022-10-08T07:06:03.843Z,7.10
2022-10-08T07:07:03.833Z,6.40
2022-10-08T07:08:03.821Z,6.40
2022-10-08T07:09:04.763Z,6.30
2022-10-08T07:10:03.796Z,6.00
2022-10-08T07:11:03.786Z,6.00
2022-10-08T07:12:03.775Z,6.30
2022-10-08T07:13:03.755Z,7.20
2022-10-08T07:14:03.744Z,6.40
2022-10-08T07:15:03.728Z,5.90
2022-10-08T07:16:03.812Z,7.30
2022-10-08T07:17:03.699Z,6.20
2022-10-08T07:18:03.688Z,6.40
2022-10-08T07:19:04.635Z,7.10
2022-10-08T07:20:03.657Z,6.60
2022-10-08T07:21:03.651Z,6.30
2022-10-08T07:22:03.637Z,6.70
2022-10-08T07:23:03.629Z,6.90
2022-10-08T07:24:03.627Z,8.20
2022-10-08T07:25:03.599Z,6.90
2022-10-08T07:26:03.591Z,7.40
2022-10-08T07:27:03.572Z,7.30
2022-10-08T07:28:03.630Z,7.10
2022-10-08T07:29:03.546Z,8.00
2022-10-08T07:30:03.530Z,6.80
2022-10-08T07:31:03.569Z,6.70
2022-10-08T07:32:03.511Z,6.10
2022-10-08T07:33:03.493Z,6.00
2022-10-08T07:34:03.486Z,5.80
2022-10-08T07:35:03.473Z,6.40
2022-10-08T07:36:03.480Z,6.50
2022-10-08T07:37:03.442Z,6.60
2022-10-08T07:38:04.382Z,7.30
2022-10-08T07:39:03.426Z,8.10
2022-10-08T07:40:03.407Z,6.70
2022-10-08T07:41:03.404Z,5.80
2022-10-08T07:42:03.381Z,6.50
2022-10-08T07:43:03.355Z,7.10
2022-10-08T07:44:03.344Z,7.40
2022-10-08T07:45:03.334Z,6.60
2022-10-08T07:46:03.372Z,8.40
2022-10-08T07:47:03.307Z,6.50
2022-10-08T07:48:03.308Z,6.60
2022-10-08T07:49:03.276Z,7.10
2022-10-08T07:50:04.233Z,6.90
2022-10-08T07:51:03.257Z,6.80
2022-10-08T07:52:03.248Z,6.90
2022-10-08T07:53:03.228Z,6.40
2022-10-08T07:54:03.255Z,6.90
2022-10-08T07:55:04.198Z,7.10
2022-10-08T07:56:03.189Z,6.80
2022-10-08T07:57:03.179Z,7.10
2022-10-08T07:58:03.180Z,7.10
2022-10-08T07:59:03.160Z,7.00
2022-10-08T08:00:03.158Z,6.70
2022-10-08T08:01:03.181Z,6.40
2022-10-08T08:02:03.191Z,5.30
2022-10-08T08:03:03.100Z,6.60
2022-10-08T08:04:03.100Z,6.20
2022-10-08T08:05:03.082Z,6.00
2022-10-08T08:06:03.069Z,6.10
2022-10-08T08:07:03.049Z,6.60
2022-10-08T08:08:03.047Z,6.60
2022-10-08T08:09:03.022Z,6.60
2022-10-08T08:10:03.023Z,6.80
2022-10-08T08:11:03.016Z,6.30
2022-10-08T08:12:03.955Z,6.70
2022-10-08T08:13:02.978Z,5.90
2022-10-08T08:14:02.960Z,7.00
2022-10-08T08:15:02.949Z,6.90
2022-10-08T08:16:03.948Z,6.60
2022-10-08T08:17:02.925Z,6.50
2022-10-08T08:18:02.905Z,6.90
2022-10-08T08:19:02.885Z,6.40
2022-10-08T08:20:03.035Z,6.80
2022-10-08T08:21:02.855Z,6.20
2022-10-08T08:22:02.858Z,7.10
2022-10-08T08:23:02.837Z,7.00
2022-10-08T08:24:02.831Z,7.30
2022-10-08T08:25:02.815Z,7.20
2022-10-08T08:26:02.797Z,8.00
2022-10-08T08:27:02.779Z,7.10
2022-10-08T08:28:02.817Z,7.40
2022-10-08T08:29:02.759Z,6.90
2022-10-08T08:30:02.760Z,8.50
2022-10-08T08:31:02.731Z,6.60
2022-10-08T08:32:02.807Z,5.90
2022-10-08T08:33:02.700Z,6.20
2022-10-08T08:34:02.689Z,8.00
2022-10-08T08:35:02.680Z,6.60
2022-10-08T08:36:02.669Z,6.30
2022-10-08T08:37:02.649Z,6.60
2022-10-08T08:38:02.641Z,5.90
2022-10-08T08:39:02.631Z,6.00
2022-10-08T08:40:02.621Z,6.60
2022-10-08T08:41:02.602Z,6.70
2022-10-08T08:42:02.599Z,5.70
2022-10-08T08:43:02.576Z,6.80
2022-10-08T08:44:02.563Z,7.30
2022-10-08T08:45:03.512Z,5.70
2022-10-08T08:46:02.624Z,6.50
2022-10-08T08:47:02.527Z,6.20
2022-10-08T08:48:02.511Z,5.90
2022-10-08T08:49:02.504Z,5.90
2022-10-08T08:50:02.491Z,5.90
2022-10-08T08:51:02.478Z,5.90
2022-10-08T08:52:02.458Z,5.70
2022-10-08T08:53:02.445Z,5.80
2022-10-08T08:54:02.436Z,5.80
2022-10-08T08:55:02.426Z,6.60
2022-10-08T08:56:02.406Z,7.50
2022-10-08T08:57:02.398Z,7.10
2022-10-08T08:58:03.007Z,6.60
2022-10-08T08:59:02.367Z,7.40
2022-10-08T09:00:02.367Z,5.80
2022-10-08T09:01:02.390Z,5.90
2022-10-08T09:02:02.331Z,6.90
2022-10-08T09:03:02.321Z,5.40
2022-10-08T09:04:02.299Z,6.00
2022-10-08T09:05:03.301Z,5.70
2022-10-08T09:06:02.280Z,5.80
2022-10-08T09:07:02.260Z,6.10
2022-10-08T09:08:02.251Z,5.80
2022-10-08T09:09:03.191Z,5.40
2022-10-08T09:10:02.234Z,6.20
2022-10-08T09:11:02.211Z,5.70
2022-10-08T09:12:02.198Z,5.30
2022-10-08T09:13:02.183Z,5.30
2022-10-08T09:14:02.181Z,5.80
2022-10-08T09:15:02.161Z,6.00
2022-10-08T09:16:02.142Z,4.90
2022-10-08T09:17:02.188Z,5.90
2022-10-08T09:18:02.115Z,6.00
2022-10-08T09:19:02.103Z,6.10
2022-10-08T09:20:02.104Z,6.40
2022-10-08T09:21:02.075Z,5.80
2022-10-08T09:22:02.070Z,6.10
2022-10-08T09:23:02.045Z,5.70
2022-10-08T09:24:02.037Z,6.20
2022-10-08T09:25:02.034Z,7.30
2022-10-08T09:26:02.007Z,5.80
2022-10-08T09:27:01.998Z,6.30
2022-10-08T09:28:02.034Z,5.30
2022-10-08T09:29:01.976Z,7.30
2022-10-08T09:30:01.955Z,5.60
2022-10-08T09:31:06.675Z,5.30
2022-10-08T09:32:02.928Z,5.70
2022-10-08T09:33:01.927Z,6.00
2022-10-08T09:34:01.908Z,5.80
2022-10-08T09:35:01.889Z,5.70
2022-10-08T09:36:01.899Z,5.00
2022-10-08T09:37:01.861Z,6.70
2022-10-08T09:38:05.657Z,7.80
2022-10-08T09:39:01.840Z,6.50
2022-10-08T09:40:01.820Z,5.60
2022-10-08T09:41:01.802Z,6.20
2022-10-08T09:42:01.804Z,5.30
2022-10-08T09:43:01.781Z,5.50
2022-10-08T09:44:01.780Z,5.50
2022-10-08T09:45:01.753Z,7.10
2022-10-08T09:46:01.798Z,6.80
2022-10-08T09:47:02.569Z,5.40
2022-10-08T09:48:01.725Z,5.30
2022-10-08T09:49:01.704Z,4.60
2022-10-08T09:50:01.693Z,4.90
2022-10-08T09:51:01.674Z,5.70
2022-10-08T09:52:01.673Z,5.30
2022-10-08T09:53:01.645Z,5.40
2022-10-08T09:54:01.645Z,6.60
2022-10-08T09:55:01.615Z,6.00
2022-10-08T09:56:01.605Z,5.20
2022-10-08T09:57:01.597Z,5.20
2022-10-08T09:58:02.533Z,4.40
2022-10-08T09:59:01.567Z,4.80
2022-10-08T10:00:01.562Z,9.20
2022-10-08T10:01:01.625Z,5.10
2022-10-08T10:02:01.530Z,5.40
2022-10-08T10:03:01.508Z,5.20
2022-10-08T10:04:01.547Z,5.20
2022-10-08T10:05:02.455Z,8.20
2022-10-08T10:06:01.479Z,5.50
2022-10-08T10:07:02.417Z,4.70
2022-10-08T10:08:01.454Z,5.30
2022-10-08T10:09:01.441Z,5.70
2022-10-08T10:10:01.430Z,7.80
2022-10-08T10:11:01.411Z,6.10
2022-10-08T10:12:02.347Z,5.10
2022-10-08T10:13:01.383Z,5.70
2022-10-08T10:14:01.382Z,5.10
2022-10-08T10:15:02.312Z,5.50
2022-10-08T10:16:01.344Z,5.30
2022-10-08T10:17:01.417Z,5.30
2022-10-08T10:18:01.323Z,5.40
2022-10-08T10:19:01.313Z,6.00
2022-10-08T10:20:01.284Z,4.60
2022-10-08T10:21:01.275Z,5.30
2022-10-08T10:22:01.264Z,5.20
2022-10-08T10:23:01.252Z,6.30
2022-10-08T10:24:01.254Z,5.50
2022-10-08T10:25:01.225Z,8.80
2022-10-08T10:26:05.614Z,5.00
2022-10-08T10:27:03.157Z,6.00
2022-10-08T10:28:01.242Z,5.90
2022-10-08T10:29:01.182Z,5.00
2022-10-08T10:30:01.158Z,5.10
2022-10-08T10:31:01.167Z,5.00
2022-10-08T10:32:01.136Z,4.80
2022-10-08T10:33:01.121Z,5.10
2022-10-08T10:34:01.118Z,4.50
2022-10-08T10:35:01.099Z,4.60
2022-10-08T10:36:01.080Z,4.50
2022-10-08T10:37:01.077Z,4.70
2022-10-08T10:38:01.060Z,4.70
2022-10-08T10:39:01.051Z,4.70
2022-10-08T10:40:01.032Z,3.90
2022-10-08T10:41:01.021Z,4.90
2022-10-08T10:42:01.011Z,4.00
2022-10-08T10:43:01.000Z,4.30
2022-10-08T10:44:00.982Z,3.80
2022-10-08T10:45:00.974Z,4.00
2022-10-08T10:46:00.966Z,4.30
2022-10-08T10:47:00.942Z,4.10
2022-10-08T10:48:00.926Z,3.80
2022-10-08T10:49:00.924Z,3.80
2022-10-08T10:50:00.895Z,3.70
2022-10-08T10:51:00.898Z,2.90
2022-10-08T10:52:00.874Z,3.20
2022-10-08T10:53:00.871Z,4.10
2022-10-08T10:54:00.857Z,2.70
2022-10-08T10:55:00.846Z,2.70
2022-10-08T10:56:00.817Z,2.80
2022-10-08T10:57:00.824Z,3.10
2022-10-08T10:58:00.799Z,4.40
2022-10-08T10:59:00.798Z,4.00
2022-10-08T11:00:00.773Z,4.10
2022-10-08T11:01:00.763Z,3.70
2022-10-08T11:02:00.792Z,4.50
2022-10-08T11:03:00.757Z,7.00
2022-10-08T11:04:00.720Z,4.80
2022-10-08T11:05:01.864Z,8.80
2022-10-08T11:06:00.691Z,11.40
2022-10-08T11:07:00.674Z,8.00
2022-10-08T11:08:00.681Z,6.60
2022-10-08T11:09:00.656Z,7.70
2022-10-08T11:10:00.633Z,3.90
2022-10-08T11:11:00.626Z,5.00
2022-10-08T11:12:00.612Z,5.40
2022-10-08T11:13:00.603Z,4.00
2022-10-08T11:14:00.583Z,4.60
2022-10-08T11:15:00.582Z,3.70
2022-10-08T11:16:00.567Z,4.70
2022-10-08T11:17:00.552Z,4.40
2022-10-08T11:18:00.542Z,5.30
2022-10-08T11:19:00.533Z,5.00
2022-10-08T11:20:00.505Z,4.20
2022-10-08T11:21:00.501Z,4.30
2022-10-08T11:22:00.476Z,4.60
2022-10-08T11:23:00.482Z,4.80
2022-10-08T11:24:00.458Z,4.80
2022-10-08T11:25:00.444Z,4.40
2022-10-08T11:26:20.821Z,4.10
2022-10-08T11:27:01.415Z,5.20
2022-10-08T11:28:00.520Z,4.40
2022-10-08T11:29:00.389Z,4.30
2022-10-08T11:30:00.394Z,5.70
2022-10-08T11:31:00.408Z,5.90
2022-10-08T11:32:00.360Z,6.20
2022-10-08T11:33:00.339Z,5.00
2022-10-08T11:34:00.320Z,4.70
2022-10-08T11:35:00.320Z,5.50
2022-10-08T11:36:00.300Z,3.60
2022-10-08T11:37:00.291Z,8.10
2022-10-08T11:38:00.286Z,5.00
2022-10-08T11:39:00.262Z,13.10
2022-10-08T11:40:00.243Z,6.50
2022-10-08T11:41:00.232Z,5.30
2022-10-08T11:42:00.213Z,4.40
2022-10-08T11:43:00.217Z,4.10
2022-10-08T11:44:00.194Z,4.60
2022-10-08T11:45:00.184Z,5.30
2022-10-08T11:46:00.208Z,4.00
2022-10-08T11:47:00.151Z,8.50
2022-10-08T11:48:00.145Z,6.20
2022-10-08T11:49:00.126Z,6.10
2022-10-08T11:50:00.115Z,5.40
2022-10-08T11:51:00.097Z,4.60
2022-10-08T11:52:00.090Z,3.90
2022-10-08T11:53:01.036Z,4.30
2022-10-08T11:54:00.057Z,4.30
2022-10-08T11:55:00.045Z,6.00
2022-10-08T11:56:00.038Z,5.80
2022-10-08T11:57:00.019Z,9.90
2022-10-08T11:58:08.787Z,7.60
2022-10-08T11:59:00.996Z,9.40
2022-10-08T12:00:04.215Z,6.90
2022-10-08T12:01:00.969Z,4.50
2022-10-08T12:01:59.956Z,4.90
2022-10-08T12:03:00.066Z,9.70
2022-10-08T12:03:59.926Z,4.80
2022-10-08T12:04:59.922Z,4.90
2022-10-08T12:05:59.892Z,5.30
2022-10-08T12:06:59.883Z,6.10
2022-10-08T12:07:59.871Z,4.50
2022-10-08T12:08:59.854Z,4.00
2022-10-08T12:09:59.844Z,5.20
2022-10-08T12:10:59.834Z,4.60
2022-10-08T12:11:59.821Z,5.00
2022-10-08T12:12:59.810Z,5.00
2022-10-08T12:13:59.794Z,31.10
2022-10-08T12:14:59.774Z,9.30
2022-10-08T12:15:59.844Z,4.60
2022-10-08T12:16:59.766Z,5.70
2022-10-08T12:17:59.745Z,4.70
2022-10-08T12:18:59.716Z,5.60
2022-10-08T12:19:59.705Z,5.10
2022-10-08T12:20:59.700Z,10.10
2022-10-08T12:21:59.681Z,8.60
2022-10-08T12:22:59.682Z,5.70
2022-10-08T12:23:59.657Z,7.00
2022-10-08T12:24:59.644Z,5.30
2022-10-08T12:25:59.637Z,5.90
2022-10-08T12:26:59.627Z,5.10
2022-10-08T12:27:59.599Z,7.30
2022-10-08T12:28:59.589Z,18.60
2022-10-08T12:29:59.578Z,6.20
2022-10-08T12:30:59.579Z,5.70
2022-10-08T12:31:59.564Z,3.10
2022-10-08T12:32:59.702Z,3.20
2022-10-08T12:34:00.480Z,3.50
2022-10-08T12:34:59.512Z,4.20
2022-10-08T12:35:59.490Z,8.50
2022-10-08T12:36:59.491Z,4.00
2022-10-08T12:37:59.461Z,3.40
2022-10-08T12:38:59.452Z,15.10
2022-10-08T12:39:59.433Z,6.90
2022-10-08T12:40:59.432Z,2.90
2022-10-08T12:41:59.422Z,4.50
2022-10-08T12:42:59.403Z,4.20
2022-10-08T12:43:59.390Z,6.70
2022-10-08T12:44:59.374Z,6.00
2022-10-08T12:45:59.363Z,4.00
2022-10-08T12:46:59.409Z,5.40
2022-10-08T12:47:59.334Z,7.80
2022-10-08T12:48:59.328Z,6.80
2022-10-08T12:49:59.305Z,6.70
2022-10-08T12:50:59.297Z,9.10
2022-10-08T12:51:59.287Z,3.90
2022-10-08T12:52:59.276Z,4.40
2022-10-08T12:53:59.247Z,8.90
2022-10-08T12:54:59.255Z,7.30
2022-10-08T12:55:59.225Z,12.80
2022-10-08T12:56:59.225Z,7.50
2022-10-08T12:57:59.198Z,4.30
2022-10-08T12:58:59.196Z,4.30
2022-10-08T12:59:59.168Z,5.70
2022-10-08T13:00:59.190Z,4.60
2022-10-08T13:01:59.230Z,4.70
2022-10-08T13:02:59.143Z,4.40
2022-10-08T13:03:59.111Z,5.70
2022-10-08T13:04:59.108Z,6.30
2022-10-08T13:05:59.090Z,11.70
2022-10-08T13:06:59.091Z,4.50